Time;durP1;ratioP1;P1;durP2;ratioP2;P2;SDS_P1;SDS_P2;PMS_P1;PMS_P2;Temp;Humidity;BMP_temperature;BMP_pressure;BME280_temperature;BME280_humidity;BME280_pressure;Samples;Min_cycle;Max_cycle;Signal;HPM_P1;HPM_P2
2022/05/19 00:01:08;;;;;;;15.00;6.47;;;;;;;7.32;60.15;99671.14;1689125;84;25682;-59
2022/05/19 00:03:35;;;;;;;14.03;6.65;;;;;;;7.37;59.98;99669.25;1687780;85;26855;-58
2022/05/19 00:06:04;;;;;;;12.17;5.97;;;;;;;7.39;60.04;99668.98;1689036;85;25992;-59
2022/05/19 00:08:31;;;;;;;15.65;7.08;;;;;;;7.42;59.83;99671.17;1689102;84;25646;-57
2022/05/19 00:11:00;;;;;;;13.60;8.00;;;;;;;7.44;59.84;99666.81;1689230;85;25967;-53
2022/05/19 00:13:28;;;;;;;14.03;7.00;;;;;;;7.39;60.32;99670.34;1689160;84;25575;-53
2022/05/19 00:15:55;;;;;;;11.43;6.25;;;;;;;7.26;60.24;99674.40;1689259;84;27548;-53
2022/05/19 00:18:21;;;;;;;16.05;6.83;;;;;;;7.17;60.74;99674.09;1689348;84;25499;-53
2022/05/19 00:20:47;;;;;;;14.23;6.22;;;;;;;7.08;60.95;99672.96;1689093;84;25605;-53
2022/05/19 00:23:14;;;;;;;11.55;6.60;;;;;;;6.98;61.60;99675.91;1689324;85;25695;-54
2022/05/19 00:25:40;;;;;;;15.03;7.35;;;;;;;6.91;61.82;99673.97;1689196;84;25685;-56
2022/05/19 00:28:06;;;;;;;15.25;7.65;;;;;;;6.87;61.29;99674.20;1689418;84;27567;-56
2022/05/19 00:30:33;;;;;;;27.70;19.17;;;;;;;6.85;61.37;99675.02;1689197;84;25508;-57
2022/05/19 00:33:00;;;;;;;18.32;9.50;;;;;;;6.86;61.26;99673.92;1689094;84;25645;-58
2022/05/19 00:35:27;;;;;;;14.40;8.15;;;;;;;6.86;61.57;99679.38;1689280;84;25759;-56
2022/05/19 00:37:52;;;;;;;14.45;8.00;;;;;;;6.84;62.07;99676.08;1689471;84;25671;-57
2022/05/19 00:40:22;;;;;;;15.98;7.95;;;;;;;6.78;61.75;99671.16;1689254;85;27389;-56
2022/05/19 00:42:48;;;;;;;14.40;7.55;;;;;;;6.78;61.70;99669.27;1689316;84;25674;-58
2022/05/19 00:45:19;;;;;;;13.53;8.13;;;;;;;6.82;61.79;99670.09;1689301;85;25605;-55
2022/05/19 00:47:53;;;;;;;15.68;8.10;;;;;;;6.84;61.60;99667.91;1688775;85;25773;-54
2022/05/19 00:50:46;;;;;;;13.55;7.40;;;;;;;6.93;61.46;99668.25;1665161;85;25589;-58
2022/05/19 00:53:50;;;;;;;12.33;7.50;;;;;;;7.00;61.42;99662.81;1688467;84;27404;-57
2022/05/19 00:56:31;;;;;;;20.55;7.85;;;;;;;7.08;61.38;99662.06;1689325;85;25408;-59
2022/05/19 00:59:07;;;;;;;13.72;7.33;;;;;;;7.12;61.53;99668.08;1689595;84;25704;-56
2022/05/19 01:01:37;;;;;;;13.88;6.55;;;;;;;7.08;61.45;99664.22;1682830;85;25880;-56
2022/05/19 01:04:26;;;;;;;13.03;7.10;;;;;;;7.00;62.19;99660.66;1689323;85;25665;-57
2022/05/19 01:06:58;;;;;;;17.70;8.23;;;;;;;6.91;61.90;99660.34;1688580;85;27453;-55
2022/05/19 01:09:25;;;;;;;15.93;7.28;;;;;;;6.94;61.92;99669.33;1665854;85;25678;-58
2022/05/19 01:11:55;;;;;;;13.28;7.20;;;;;;;6.98;61.96;99666.37;1689184;84;25510;-56
2022/05/19 01:14:19;;;;;;;15.00;7.62;;;;;;;6.94;62.16;99669.89;1688366;85;25446;-57
2022/05/19 01:16:45;;;;;;;14.78;7.62;;;;;;;6.84;62.22;99662.46;1689204;84;25643;-58
2022/05/19 01:19:25;;;;;;;14.10;7.05;;;;;;;6.77;62.29;99669.52;1689133;84;27471;-50
2022/05/19 01:21:56;;;;;;;12.68;7.60;;;;;;;6.76;62.39;99673.31;1688717;84;34638;-53
2022/05/19 01:24:27;;;;;;;13.50;6.87;;;;;;;6.71;62.57;99670.02;1689271;85;25924;-52
2022/05/19 01:26:57;;;;;;;13.20;6.53;;;;;;;6.61;62.64;99672.67;1687632;85;26951;-53
2022/05/19 01:29:26;;;;;;;13.53;7.40;;;;;;;6.59;62.53;99670.22;1689218;85;25686;-53
2022/05/19 01:32:00;;;;;;;15.23;6.95;;;;;;;6.57;62.51;99670.20;1665593;85;27666;-53
2022/05/19 01:34:31;;;;;;;17.45;7.70;;;;;;;6.53;62.33;99661.73;1687129;85;25669;-53
2022/05/19 01:36:59;;;;;;;14.73;7.58;;;;;;;6.50;62.73;99659.53;1689293;85;25443;-56
2022/05/19 01:39:30;;;;;;;14.90;9.10;;;;;;;6.50;62.79;99658.99;1689152;84;26842;-54
2022/05/19 01:42:05;;;;;;;;;;;;;;;6.45;62.96;99653.50;1691442;85;25495;-50
2022/05/19 01:44:48;;;;;;;13.22;6.25;;;;;;;6.37;63.20;99648.56;1689477;84;27408;-51
2022/05/19 01:47:51;;;;;;;10.93;6.45;;;;;;;6.31;63.65;99649.60;1687354;85;25931;-55
2022/05/19 01:50:25;;;;;;;10.90;6.22;;;;;;;6.32;63.53;99652.06;1698220;84;25675;-52
2022/05/19 01:53:15;;;;;;;13.58;6.87;;;;;;;6.27;64.38;99647.92;1701168;84;25764;-55
2022/05/19 01:55:53;;;;;;;17.73;8.83;;;;;;;6.21;64.49;99657.13;1701605;84;25616;-54
2022/05/19 01:58:33;;;;;;;15.45;7.55;;;;;;;6.22;63.98;99656.07;1701604;84;27665;-57
2022/05/19 02:01:04;;;;;;;13.90;7.90;;;;;;;6.27;64.04;99656.09;1702159;84;30485;-58
2022/05/19 02:03:59;;;;;;;14.13;6.78;;;;;;;6.28;63.95;99652.31;1701872;84;25606;-57
2022/05/19 02:06:43;;;;;;;13.78;6.80;;;;;;;6.25;64.05;99648.75;1701837;84;26126;-58
2022/05/19 02:09:27;;;;;;;13.10;5.90;;;;;;;6.21;64.17;99646.24;1697431;84;25611;-58
2022/05/19 02:11:56;;;;;;;13.83;6.45;;;;;;;6.18;64.20;99640.79;1702028;84;27458;-58
2022/05/19 02:14:30;;;;;;;10.78;6.55;;;;;;;6.20;64.30;99649.53;1701888;84;25445;-57
2022/05/19 02:16:59;;;;;;;14.40;7.80;;;;;;;6.23;64.17;99645.45;1701559;84;25496;-57
2022/05/19 02:19:29;;;;;;;15.00;6.90;;;;;;;6.16;64.35;99637.50;1702061;84;25881;-58
2022/05/19 02:21:56;;;;;;;15.90;7.28;;;;;;;6.16;64.44;99648.38;1702225;84;25672;-57
2022/05/19 02:24:26;;;;;;;13.22;7.33;;;;;;;6.13;64.53;99646.21;1701986;84;27634;-58
2022/05/19 02:26:52;;;;;;;16.67;7.93;;;;;;;6.16;64.53;99651.11;1701959;84;26401;-58
2022/05/19 02:29:23;;;;;;;13.18;7.42;;;;;;;6.16;64.58;99652.47;1701982;84;25528;-59
2022/05/19 02:31:52;;;;;;;19.02;7.37;;;;;;;6.15;64.55;99662.55;1701787;84;25880;-58
2022/05/19 02:34:19;;;;;;;12.95;7.15;;;;;;;6.13;64.50;99657.09;1701988;84;25431;-58
2022/05/19 02:36:45;;;;;;;13.00;6.70;;;;;;;6.10;64.82;99652.17;1701896;84;28441;-56
2022/05/19 02:39:11;;;;;;;15.78;7.37;;;;;;;6.05;64.82;99652.95;1701906;84;25447;-56
2022/05/19 02:41:37;;;;;;;12.37;6.55;;;;;;;6.01;64.96;99652.60;1701966;84;25629;-57
2022/05/19 02:44:03;;;;;;;14.50;8.38;;;;;;;6.05;64.95;99654.30;1701973;84;25702;-59
2022/05/19 02:46:29;;;;;;;14.80;7.33;;;;;;;6.08;64.87;99654.31;1701825;84;25724;-56
2022/05/19 02:48:59;;;;;;;11.45;6.60;;;;;;;6.11;64.73;99648.36;1702026;84;27478;-58
2022/05/19 02:51:25;;;;;;;13.87;6.93;;;;;;;6.12;65.34;99649.46;1704832;84;25628;-58
2022/05/19 02:53:51;;;;;;;12.98;6.85;;;;;;;6.14;65.23;99647.28;1704962;84;25748;-59
2022/05/19 02:56:17;;;;;;;13.20;7.40;;;;;;;6.17;64.93;99646.49;1704700;84;26438;-51
2022/05/19 02:58:43;;;;;;;14.00;7.22;;;;;;;6.13;65.50;99641.56;1705137;84;25640;-50
2022/05/19 03:01:09;;;;;;;11.33;7.03;;;;;;;6.08;65.87;99642.08;1704848;84;27453;-52
2022/05/19 03:03:35;;;;;;;14.20;7.40;;;;;;;6.00;66.28;99633.28;1704665;84;25697;-53
2022/05/19 03:06:01;;;;;;;14.33;7.78;;;;;;;5.99;65.97;99634.34;1704576;84;25519;-53
2022/05/19 03:08:27;;;;;;;12.82;7.12;;;;;;;5.98;66.05;99637.32;1704659;84;25620;-54
2022/05/19 03:10:53;;;;;;;12.43;6.62;;;;;;;5.87;66.63;99629.60;1704626;84;25657;-56
2022/05/19 03:13:23;;;;;;;16.82;6.95;;;;;;;5.73;67.32;99630.03;1704327;84;28666;-55
2022/05/19 03:15:50;;;;;;;14.30;7.40;;;;;;;5.67;67.28;99635.13;1705021;84;25694;-56
2022/05/19 03:18:16;;;;;;;14.18;7.87;;;;;;;5.60;66.73;99637.24;1704821;84;25589;-59
2022/05/19 03:20:42;;;;;;;14.90;8.43;;;;;;;5.64;66.74;99643.80;1704803;84;25715;-56
2022/05/19 03:23:09;;;;;;;13.72;7.37;;;;;;;5.69;66.48;99641.14;1704420;84;25894;-59
2022/05/19 03:25:35;;;;;;;14.00;7.22;;;;;;;5.71;66.53;99640.36;1704726;84;27436;-57
2022/05/19 03:28:01;;;;;;;16.40;7.97;;;;;;;5.77;66.55;99646.66;1704592;84;25634;-58
2022/05/19 03:30:27;;;;;;;16.05;7.72;;;;;;;5.78;66.57;99642.86;1704684;84;25613;-55
2022/05/19 03:32:53;;;;;;;13.48;7.80;;;;;;;5.87;66.60;99639.95;1704613;84;26374;-59
2022/05/19 03:35:20;;;;;;;12.60;7.08;;;;;;;5.98;66.41;99636.79;1704742;84;25479;-56
2022/05/19 03:37:46;;;;;;;14.20;7.35;;;;;;;6.12;66.97;99634.49;1704839;84;27591;-55
2022/05/19 03:40:16;;;;;;;14.90;7.08;;;;;;;6.25;66.46;99640.58;1704674;84;25685;-56
2022/05/19 03:42:42;;;;;;;14.80;7.60;;;;;;;6.39;66.11;99648.56;1704939;84;25662;-56
2022/05/19 03:45:09;;;;;;;13.88;7.20;;;;;;;6.54;65.91;99637.52;1704649;84;26701;-57
2022/05/19 03:47:35;;;;;;;16.42;7.78;;;;;;;6.67;65.72;99644.39;1704737;84;25467;-56
2022/05/19 03:50:01;;;;;;;17.35;7.85;;;;;;;6.80;65.45;99640.92;1704476;84;28474;-57
2022/05/19 03:52:28;;;;;;;15.75;8.03;;;;;;;6.93;65.11;99636.92;1704716;84;25756;-58
2022/05/19 03:54:54;;;;;;;18.02;7.95;;;;;;;7.10;65.18;99633.44;1704811;84;25683;-57
2022/05/19 03:57:21;;;;;;;13.15;7.12;;;;;;;7.26;64.65;99639.75;1704646;84;26200;-56
2022/05/19 03:59:49;;;;;;;15.18;6.97;;;;;;;7.37;64.39;99639.81;1704739;84;25593;-57
2022/05/19 04:02:15;;;;;;;15.45;7.60;;;;;;;7.45;64.33;99638.48;1704708;84;28404;-57
2022/05/19 04:04:41;;;;;;;13.83;7.60;;;;;;;7.56;64.21;99642.85;1704879;84;25633;-58
2022/05/19 04:07:07;;;;;;;15.93;8.33;;;;;;;7.70;64.21;99651.88;1704755;84;25475;-57
2022/05/19 04:09:33;;;;;;;13.10;7.30;;;;;;;7.84;63.99;99646.72;1704928;84;25649;-56
2022/05/19 04:11:58;;;;;;;13.68;7.08;;;;;;;8.01;63.62;99651.93;1704829;84;25686;-56
2022/05/19 04:14:24;;;;;;;18.32;8.30;;;;;;;8.20;63.38;99647.30;1704965;84;27445;-57
2022/05/19 04:16:52;;;;;;;14.07;8.10;;;;;;;8.39;62.76;99648.38;1704787;84;25680;-56
2022/05/19 04:19:18;;;;;;;13.50;7.70;;;;;;;8.56;62.71;99647.30;1704435;84;25680;-57
2022/05/19 04:21:44;;;;;;;16.27;8.30;;;;;;;8.77;62.17;99644.51;1704816;84;25719;-56
2022/05/19 04:24:11;;;;;;;14.10;7.47;;;;;;;8.97;61.95;99651.84;1704984;84;25664;-57
2022/05/19 04:26:38;;;;;;;12.40;7.00;;;;;;;9.13;61.77;99656.69;1704742;84;27558;-56
2022/05/19 04:29:05;;;;;;;15.90;8.43;;;;;;;9.27;61.44;99654.17;1704846;84;25653;-57
2022/05/19 04:31:31;;;;;;;16.07;7.70;;;;;;;9.44;61.20;99647.53;1704971;84;25598;-58
2022/05/19 04:33:57;;;;;;;19.00;8.18;;;;;;;9.61;60.97;99646.34;1704590;84;26806;-61
2022/05/19 04:36:24;;;;;;;15.72;6.92;;;;;;;9.77;60.63;99647.08;1704783;84;25671;-57
2022/05/19 04:38:49;;;;;;;15.08;6.97;;;;;;;9.89;59.72;99649.45;1704981;84;27560;-57
2022/05/19 04:41:15;;;;;;;15.05;7.25;;;;;;;9.93;59.51;99652.45;1704788;84;25677;-57
2022/05/19 04:43:41;;;;;;;18.17;7.33;;;;;;;10.01;59.63;99648.55;1705072;84;25424;-59
2022/05/19 04:46:07;;;;;;;13.43;7.92;;;;;;;10.20;59.79;99640.19;1704687;84;26436;-56
2022/05/19 04:48:35;;;;;;;17.60;8.70;;;;;;;10.45;59.47;99642.44;1704633;84;25629;-56
2022/05/19 04:51:02;;;;;;;10.85;6.42;;;;;;;10.68;58.99;99645.53;1702753;84;28335;-59
2022/05/19 04:53:29;;;;;;;13.15;7.47;;;;;;;10.94;58.19;99645.26;1701774;84;25748;-60
2022/05/19 04:55:56;;;;;;;13.60;7.70;;;;;;;11.20;57.92;99649.06;1701740;84;25630;-58
2022/05/19 04:58:23;;;;;;;14.58;7.33;;;;;;;11.45;57.33;99652.61;1701680;84;26214;-57
2022/05/19 05:00:51;;;;;;;11.60;6.67;;;;;;;11.65;56.71;99652.86;1701988;84;25633;-57
2022/05/19 05:03:18;;;;;;;9.68;5.87;;;;;;;11.83;56.01;99655.34;1701944;84;28294;-59
2022/05/19 05:05:46;;;;;;;9.88;5.28;;;;;;;11.98;55.18;99647.99;1701529;84;27217;-58
2022/05/19 05:08:12;;;;;;;8.63;5.05;;;;;;;12.13;54.31;99657.95;1702156;84;25552;-56
2022/05/19 05:10:40;;;;;;;13.55;5.00;;;;;;;12.28;53.88;99657.70;1702010;84;26414;-57
2022/05/19 05:13:13;;;;;;;7.28;3.80;;;;;;;12.53;53.13;99655.61;1701714;84;25427;-58
2022/05/19 05:15:41;;;;;;;7.70;4.25;;;;;;;12.60;51.02;99659.34;1702177;84;27382;-59
2022/05/19 05:18:08;;;;;;;8.50;4.60;;;;;;;12.72;52.23;99656.69;1701930;84;25751;-57
2022/05/19 05:20:38;;;;;;;7.40;4.10;;;;;;;12.92;51.27;99653.53;1701935;84;25448;-56
2022/05/19 05:23:05;;;;;;;9.80;4.33;;;;;;;13.04;50.65;99654.97;1673842;84;25756;-57
2022/05/19 05:25:32;;;;;;;6.83;3.95;;;;;;;13.11;50.19;99658.13;1701917;84;25621;-60
2022/05/19 05:27:58;;;;;;;12.18;4.70;;;;;;;13.25;50.33;99656.75;1701862;84;27462;-60
2022/05/19 05:30:26;;;;;;;10.28;4.10;;;;;;;13.42;49.71;99658.84;1701907;84;25681;-61
2022/05/19 05:32:52;;;;;;;8.30;3.60;;;;;;;13.53;49.85;99658.09;1701643;84;25468;-57
2022/05/19 05:35:19;;;;;;;6.83;3.45;;;;;;;13.66;49.51;99661.12;1701833;84;26232;-59
2022/05/19 05:37:45;;;;;;;9.18;4.03;;;;;;;13.80;48.26;99659.17;1702079;84;25587;-56
2022/05/19 05:40:13;;;;;;;9.48;3.42;;;;;;;13.96;48.64;99660.75;1702109;84;27763;-56
2022/05/19 05:42:40;;;;;;;7.20;3.40;;;;;;;14.09;47.68;99657.67;1701895;84;25499;-56
2022/05/19 05:45:09;;;;;;;11.15;3.90;;;;;;;14.24;47.68;99652.34;1701988;84;25709;-57
2022/05/19 05:47:35;;;;;;;10.03;3.77;;;;;;;14.39;47.46;99652.55;1701843;84;25764;-57
2022/05/19 05:50:03;;;;;;;7.75;4.00;;;;;;;14.58;46.79;99659.21;1701972;84;25492;-57
2022/05/19 05:52:29;;;;;;;7.75;4.25;;;;;;;14.72;46.86;99664.64;1701659;84;28292;-58
2022/05/19 05:54:59;;;;;;;8.68;4.42;;;;;;;14.89;46.56;99660.36;1701886;84;25812;-57
2022/05/19 05:57:24;;;;;;;11.20;3.30;;;;;;;15.14;46.61;99648.36;1701244;84;25487;-59
2022/05/19 05:59:50;;;;;;;8.90;3.10;;;;;;;15.23;45.33;99640.89;1701933;84;25706;-57
2022/05/19 06:02:16;;;;;;;9.23;3.47;;;;;;;15.23;45.33;99640.89;1701926;84;25620;-57
2022/05/19 06:04:43;;;;;;;6.42;2.90;;;;;;;15.42;45.23;99651.67;1701837;84;28028;-57
2022/05/19 06:07:10;;;;;;;8.73;3.45;;;;;;;15.45;44.08;99655.73;1701820;84;25645;-58
2022/05/19 06:09:39;;;;;;;5.20;2.70;;;;;;;15.42;44.84;99653.05;1701927;84;25649;-58
2022/05/19 06:12:07;;;;;;;3.65;2.70;;;;;;;15.47;44.42;99651.27;1701804;84;26257;-57
2022/05/19 06:14:33;;;;;;;7.75;2.72;;;;;;;15.57;43.58;99650.16;1701848;84;25447;-57
2022/05/19 06:16:59;;;;;;;5.80;2.95;;;;;;;15.71;44.14;99649.42;1701555;84;29499;-58
2022/05/19 06:19:26;;;;;;;5.92;2.77;;;;;;;15.71;44.14;99649.42;1701901;84;25652;-58
2022/05/19 06:21:52;;;;;;;5.53;2.80;;;;;;;15.92;44.02;99652.35;1702122;84;25688;-59
2022/05/19 06:24:18;;;;;;;4.95;2.67;;;;;;;16.02;43.66;99649.87;1701948;84;25915;-58
2022/05/19 06:26:45;;;;;;;6.03;2.70;;;;;;;16.16;43.67;99647.50;1702006;84;25648;-60
2022/05/19 06:29:12;;;;;;;5.58;2.40;;;;;;;16.33;43.43;99651.37;1701678;84;28213;-59
2022/05/19 06:31:38;;;;;;;4.25;2.70;;;;;;;16.48;43.35;99649.47;1701986;84;25487;-59
2022/05/19 06:34:05;;;;;;;8.28;4.00;;;;;;;16.51;43.19;99647.43;1701979;84;25432;-60
2022/05/19 06:36:31;;;;;;;6.60;2.75;;;;;;;16.72;43.03;99648.67;1701579;84;26606;-57
2022/05/19 06:38:58;;;;;;;10.65;2.77;;;;;;;16.95;42.63;99651.98;1701671;84;25662;-58
2022/05/19 06:44:09;;;;;;;8.90;3.70;;;;;;;17.31;41.35;99649.89;1701567;84;25597;-59
2022/05/19 06:46:35;;;;;;;11.12;5.15;;;;;;;17.62;40.72;99646.52;1702074;84;25451;-59
2022/05/19 06:49:04;;;;;;;8.25;3.77;;;;;;;17.80;40.80;99652.17;1701686;84;26722;-57
2022/05/19 06:51:31;;;;;;;6.95;3.30;;;;;;;17.95;40.69;99648.53;1701473;84;25715;-58
2022/05/19 06:53:58;;;;;;;8.18;2.92;;;;;;;18.26;40.14;99649.27;1701727;84;27807;-58
2022/05/19 06:56:24;;;;;;;7.83;3.65;;;;;;;18.39;39.95;99649.53;1701559;84;25641;-59
2022/05/19 06:58:51;;;;;;;6.53;2.83;;;;;;;18.46;39.88;99647.59;1702177;84;25482;-58
2022/05/19 07:01:17;;;;;;;4.17;2.30;;;;;;;18.72;38.68;99654.00;1701570;84;25789;-60
2022/05/19 07:03:44;;;;;;;4.37;2.40;;;;;;;18.89;38.94;99651.59;1701630;84;25432;-60
2022/05/19 07:06:11;;;;;;;8.10;2.90;;;;;;;19.02;39.00;99653.22;1701678;84;27345;-59
2022/05/19 07:08:39;;;;;;;4.62;2.67;;;;;;;19.28;38.02;99651.27;1701485;84;27119;-58
2022/05/19 07:11:06;;;;;;;6.50;3.20;;;;;;;19.42;36.78;99641.17;1701546;84;25622;-59
2022/05/19 07:13:32;;;;;;;4.37;2.95;;;;;;;19.63;37.94;99641.62;1701839;84;25717;-58
2022/05/19 07:15:59;;;;;;;5.47;2.90;;;;;;;19.98;38.03;99638.27;1701566;84;25497;-58
2022/05/19 07:18:26;;;;;;;5.95;2.40;;;;;;;20.17;37.02;99639.02;1701807;84;27455;-60
2022/05/19 07:20:52;;;;;;;3.67;2.20;;;;;;;20.28;36.31;99636.53;1701720;84;25788;-60
2022/05/19 07:23:24;;;;;;;9.33;2.17;;;;;;;20.50;34.97;99631.55;1701572;84;25617;-59
2022/05/19 07:25:53;;;;;;;4.90;2.33;;;;;;;20.65;33.18;99635.50;1701578;84;26502;-59
2022/05/19 07:28:20;;;;;;;2.45;1.70;;;;;;;20.78;34.35;99634.81;1701625;84;25672;-59
2022/05/19 07:30:49;;;;;;;3.55;1.80;;;;;;;21.06;32.49;99631.73;1701728;84;28315;-59
2022/05/19 07:33:16;;;;;;;5.22;1.95;;;;;;;21.14;32.96;99627.14;1701589;84;25961;-58
2022/05/19 07:35:50;;;;;;;5.90;2.00;;;;;;;21.31;33.73;99632.91;1701838;84;25753;-59
2022/05/19 07:38:14;;;;;;;5.45;1.82;;;;;;;21.63;33.84;99626.42;1699860;84;25468;-58
2022/05/19 07:40:42;;;;;;;2.00;1.70;;;;;;;22.01;33.09;99629.61;1701658;84;25478;-57
2022/05/19 07:45:54;;;;;;;6.42;1.72;;;;;;;22.54;31.30;99625.43;1701505;84;25641;-59
2022/05/19 07:48:21;;;;;;;4.85;1.77;;;;;;;22.76;31.05;99620.22;1701800;84;25444;-59
2022/05/19 07:50:47;;;;;;;4.00;1.50;;;;;;;22.99;29.99;99617.41;1699781;84;26364;-59
2022/05/19 07:53:13;;;;;;;3.90;1.60;;;;;;;23.17;31.05;99623.88;1688794;85;25932;-58
2022/05/19 07:55:41;;;;;;;4.30;1.55;;;;;;;23.44;30.21;99635.08;1689148;85;27676;-62
2022/05/19 07:58:07;;;;;;;5.65;1.80;;;;;;;23.58;30.22;99625.27;1688951;85;25606;-62
2022/05/19 08:00:33;;;;;;;4.53;1.42;;;;;;;23.78;30.47;99623.13;1689381;85;25702;-60
2022/05/19 08:03:00;;;;;;;2.33;1.52;;;;;;;24.18;28.65;99625.81;1689376;85;26009;-59
2022/05/19 08:05:26;;;;;;;2.98;1.65;;;;;;;24.28;27.44;99617.91;1688806;85;25737;-60
2022/05/19 08:07:52;;;;;;;4.20;1.77;;;;;;;24.34;28.35;99621.16;1689138;84;28569;-60
2022/05/19 08:10:25;;;;;;;4.08;1.67;;;;;;;24.27;28.90;99621.30;1689300;84;25674;-59
2022/05/19 08:15:38;;;;;;;6.03;2.70;;;;;;;24.45;26.83;99622.09;1622392;87;25589;-58
2022/05/19 08:18:12;;;;;;;5.22;1.82;;;;;;;24.46;28.02;99617.30;1622343;88;25513;-61
2022/05/19 08:20:43;;;;;;;5.42;3.15;;;;;;;24.58;27.65;99614.19;1622419;88;27343;-58
2022/05/19 08:23:16;;;;;;;7.87;3.35;;;;;;;24.92;29.18;99612.71;1622063;88;25822;-61
2022/05/19 08:25:43;;;;;;;4.80;2.67;;;;;;;25.16;26.71;99605.47;1621280;88;25591;-57
2022/05/19 08:28:10;;;;;;;6.42;2.70;;;;;;;25.24;28.47;99600.72;1622216;88;25730;-58
2022/05/19 08:30:36;;;;;;;5.75;2.95;;;;;;;25.40;26.83;99610.20;1622571;88;25667;-57
2022/05/19 08:33:06;;;;;;;6.78;3.12;;;;;;;25.51;26.52;99607.47;1622213;88;27463;-58
2022/05/19 08:35:34;;;;;;;6.17;3.47;;;;;;;25.58;25.78;99601.88;1622363;88;25676;-58
2022/05/19 08:38:01;;;;;;;5.20;2.52;;;;;;;25.68;26.35;99597.56;1622556;88;25728;-58
2022/05/19 08:40:29;;;;;;;6.25;2.47;;;;;;;25.96;26.66;99607.88;1622580;88;25972;-58
2022/05/19 08:42:59;;;;;;;4.25;2.10;;;;;;;26.30;25.42;99604.17;1622780;88;25530;-58
2022/05/19 08:45:35;;;;;;;4.42;2.00;;;;;;;26.30;24.58;99599.97;1622495;88;27513;-60
2022/05/19 08:48:12;;;;;;;6.90;2.20;;;;;;;25.75;24.21;99604.59;1622257;88;25675;-57
2022/05/19 08:51:05;;;;;;;4.92;2.33;;;;;;;25.83;25.90;99610.23;1629805;85;25790;-59
2022/05/19 08:53:36;;;;;;;3.47;2.15;;;;;;;26.13;26.16;99609.92;1692414;84;25751;-59
2022/05/19 08:56:29;;;;;;;3.35;1.90;;;;;;;26.05;23.65;99605.51;1692448;84;25649;-59
2022/05/19 08:59:16;;;;;;;4.42;1.87;;;;;;;26.06;25.38;99605.11;1604664;88;28069;-60
2022/05/19 09:02:05;;;;;;;3.65;1.85;;;;;;;26.47;25.43;99604.59;1604567;89;25838;-58
2022/05/19 09:04:59;;;;;;;3.77;2.20;;;;;;;26.85;25.41;99607.63;1604368;89;25779;-58
2022/05/19 09:10:53;;;;;;;2.87;2.00;;;;;;;26.97;23.12;99600.78;1604313;89;25471;-60
2022/05/19 09:13:53;;;;;;;5.65;1.75;;;;;;;27.17;24.30;99602.60;1603690;89;27913;-58
2022/05/19 09:16:26;;;;;;;3.90;1.87;;;;;;;27.24;23.19;99598.36;1604281;89;26164;-58
2022/05/19 09:19:22;;;;;;;4.85;1.80;;;;;;;27.40;22.66;99599.92;1604524;89;25668;-58
2022/05/19 09:21:54;;;;;;;3.40;2.15;;;;;;;27.34;23.01;99587.48;1604518;89;26481;-58
2022/05/19 09:24:20;;;;;;;4.78;1.95;;;;;;;27.55;23.70;99594.42;1604420;89;25796;-58
2022/05/19 09:26:53;;;;;;;5.30;1.87;;;;;;;27.92;22.29;99595.73;1604218;89;27614;-61
2022/05/19 09:29:43;;;;;;;2.35;1.70;;;;;;;28.10;22.28;99594.21;1604094;89;25821;-58
2022/05/19 09:32:45;;;;;;;7.90;2.10;;;;;;;28.41;22.60;99583.77;1604612;89;25690;-58
2022/05/19 09:35:37;;;;;;;5.08;1.65;;;;;;;28.90;22.77;99590.80;1618340;84;25744;-58
2022/05/19 09:38:33;;;;;;;3.05;1.75;;;;;;;29.36;22.04;99587.15;1692416;84;25591;-58
2022/05/19 09:41:32;;;;;;;2.80;1.90;;;;;;;29.72;20.75;99583.09;1692504;84;28184;-58
2022/05/19 09:44:00;;;;;;;5.67;2.02;;;;;;;29.54;20.86;99584.11;1692755;84;25654;-57
2022/05/19 09:46:40;;;;;;;2.42;1.70;;;;;;;29.90;21.52;99575.79;1692472;84;25654;-58
2022/05/19 09:49:15;;;;;;;3.70;1.70;;;;;;;30.27;21.15;99578.92;1687913;84;26280;-57
2022/05/19 09:51:44;;;;;;;4.15;1.80;;;;;;;30.59;20.90;99569.13;1688711;84;25696;-57
2022/05/19 09:54:12;;;;;;;3.40;1.67;;;;;;;30.39;19.04;99569.07;1665611;85;27451;-58
2022/05/19 09:56:54;;;;;;;4.80;1.40;;;;;;;30.36;19.35;99557.98;1689139;85;25640;-58
2022/05/19 09:59:28;;;;;;;4.12;1.80;;;;;;;30.50;19.25;99564.63;1689252;85;25613;-58
2022/05/19 10:02:26;;;;;;;2.67;1.65;;;;;;;30.91;20.51;99552.22;1687339;85;25706;-57
2022/05/19 10:04:57;;;;;;;2.58;1.40;;;;;;;30.89;18.55;99549.05;1689093;85;25654;-62
2022/05/19 10:07:36;;;;;;;4.17;1.70;;;;;;;31.07;19.80;99554.16;1689179;85;27632;-58
2022/05/19 10:10:08;;;;;;;2.75;1.80;;;;;;;31.26;20.29;99552.59;1689051;85;25642;-58
2022/05/19 10:12:39;;;;;;;2.55;1.32;;;;;;;31.27;20.20;99547.10;1686177;85;25491;-61
2022/05/19 10:15:16;;;;;;;5.72;2.00;;;;;;;31.53;20.17;99538.30;1687802;85;25750;-59
2022/05/19 10:18:06;;;;;;;4.95;1.45;;;;;;;31.54;19.94;99541.92;1689086;85;40671;-58
2022/05/19 10:20:43;;;;;;;4.80;2.37;;;;;;;31.83;18.90;99541.28;1689167;85;27649;-60
2022/05/19 10:23:44;;;;;;;3.00;1.60;;;;;;;31.66;18.99;99533.39;1681896;85;25508;-58
2022/05/19 10:26:49;;;;;;;4.28;2.92;;;;;;;31.71;18.77;99535.69;1689100;84;25587;-58
2022/05/19 10:32:49;;;;;;;2.77;1.30;;;;;;;31.67;19.11;99523.04;1689095;85;25625;-61
2022/05/19 10:35:27;;;;;;;2.27;1.30;;;;;;;31.78;17.99;99517.73;1689310;84;27525;-61
2022/05/19 10:38:01;;;;;;;5.25;1.42;;;;;;;31.64;18.75;99508.94;1688976;85;25620;-59
2022/05/19 10:40:55;;;;;;;4.17;1.52;;;;;;;31.42;16.54;99514.45;1688803;85;25606;-59
2022/05/19 10:43:39;;;;;;;4.72;1.27;;;;;;;31.25;16.61;99515.59;1688800;85;25740;-60
2022/05/19 10:46:09;;;;;;;3.80;1.30;;;;;;;30.97;16.93;99503.63;1672473;85;25848;-61
2022/05/19 10:49:01;;;;;;;2.30;1.30;;;;;;;31.02;17.52;99503.91;1689221;85;27017;-58
2022/05/19 10:52:05;;;;;;;2.15;1.30;;;;;;;31.34;16.35;99506.53;1689414;84;25638;-58
2022/05/19 10:54:46;;;;;;;3.25;1.80;;;;;;;31.54;17.71;99507.32;1697024;84;25471;-58
2022/05/19 10:57:35;;;;;;;5.25;1.57;;;;;;;31.77;18.85;99504.18;1701491;84;26570;-60
2022/05/19 11:00:21;;;;;;;5.15;1.40;;;;;;;32.33;17.73;99502.29;1701058;84;25475;-59
2022/05/19 11:03:17;;;;;;;2.33;1.50;;;;;;;32.72;18.45;99510.41;1701800;84;27485;-61
2022/05/19 11:05:58;;;;;;;2.30;1.25;;;;;;;32.78;16.76;99505.80;1701763;84;25637;-59
2022/05/19 11:09:02;;;;;;;4.85;2.62;;;;;;;33.05;16.72;99501.05;1701819;84;25469;-58
2022/05/19 11:11:55;;;;;;;2.87;1.22;;;;;;;33.21;16.77;99495.14;1701490;84;25938;-58
2022/05/19 11:14:32;;;;;;;3.70;1.30;;;;;;;32.97;17.76;99496.78;1701705;84;25501;-58
2022/05/19 11:17:04;;;;;;;1.75;1.25;;;;;;;32.94;17.89;99504.16;1702111;84;27422;-57
2022/05/19 11:19:38;;;;;;;2.37;1.50;;;;;;;32.89;18.05;99496.98;1699963;84;25443;-58
2022/05/19 11:22:10;;;;;;;3.75;1.40;;;;;;;33.21;18.24;99491.66;1700325;84;25416;-56
2022/05/19 11:27:57;;;;;;;3.22;1.60;;;;;;;33.48;17.27;99474.84;1701821;84;25595;-59
2022/05/19 11:30:35;;;;;;;3.75;1.30;;;;;;;33.24;17.28;99481.45;1582188;89;27499;-57
2022/05/19 11:33:05;;;;;;;2.37;1.30;;;;;;;33.33;17.17;99469.42;1582821;90;25701;-57
2022/05/19 11:35:36;;;;;;;2.20;1.10;;;;;;;33.71;17.71;99466.46;1583029;90;25640;-57
2022/05/19 11:38:19;;;;;;;1.77;1.22;;;;;;;34.07;15.13;99467.35;1583145;87;25597;-57
2022/05/19 11:41:12;;;;;;;1.95;1.30;;;;;;;33.57;15.11;99456.31;1583069;90;25762;-57
2022/05/19 11:44:02;;;;;;;3.25;1.30;;;;;;;33.54;15.11;99451.73;1582738;90;28368;-57
2022/05/19 11:47:09;;;;;;;3.17;1.90;;;;;;;33.98;15.59;99448.93;1582320;90;27167;-57
2022/05/19 11:56:01;;;;;;;1.82;1.20;;;;;;;34.57;15.66;99447.78;1582596;90;25539;-57
2022/05/19 11:58:34;;;;;;;3.25;1.47;;;;;;;34.83;16.09;99435.50;1582924;90;27500;-59
2022/05/19 12:01:07;;;;;;;3.45;1.45;;;;;;;34.54;16.17;99435.91;1582651;89;25835;-58
2022/05/19 12:04:08;;;;;;;4.53;1.40;;;;;;;34.61;16.11;99429.14;1583120;90;25732;-57
2022/05/19 12:06:48;;;;;;;1.92;1.10;;;;;;;34.46;15.78;99428.25;1613309;84;26709;-57
2022/05/19 12:09:29;;;;;;;5.08;1.60;;;;;;;34.32;14.15;99423.86;1702006;84;25415;-57
2022/05/19 12:12:20;;;;;;;5.67;1.30;;;;;;;34.18;15.36;99429.41;1701665;84;27502;-60
2022/05/19 12:15:17;;;;;;;3.42;1.37;;;;;;;34.51;15.91;99420.53;1702002;84;25493;-57
2022/05/19 12:18:05;;;;;;;1.52;1.22;;;;;;;34.49;14.76;99426.52;1608127;89;25683;-57
2022/05/19 12:20:59;;;;;;;5.25;1.60;;;;;;;34.57;14.12;99419.33;1608509;89;25921;-57
2022/05/19 12:23:34;;;;;;;3.02;1.67;;;;;;;34.46;14.91;99414.64;1608139;89;25579;-58